createdAt,value
2024-01-30T00:00:09.270Z,66.70
2024-01-30T00:02:57.920Z,57.40
2024-01-30T00:05:26.507Z,50.10
2024-01-30T00:07:54.851Z,48.80
2024-01-30T00:10:23.274Z,46.20
2024-01-30T00:12:51.748Z,48.60
2024-01-30T00:15:20.465Z,44.10
2024-01-30T00:17:49.061Z,48.90
2024-01-30T00:20:17.679Z,44.40
2024-01-30T00:22:46.410Z,48.40
2024-01-30T00:25:14.905Z,44.00
2024-01-30T00:27:43.693Z,44.60
2024-01-30T00:30:13.166Z,52.10
2024-01-30T00:32:41.901Z,53.50
2024-01-30T00:35:11.673Z,54.30
2024-01-30T00:37:40.000Z,47.00
2024-01-30T00:40:09.070Z,54.40
2024-01-30T00:42:37.524Z,49.90
2024-01-30T00:45:06.290Z,51.40
2024-01-30T00:47:34.824Z,54.10
2024-01-30T00:50:03.594Z,49.70
2024-01-30T00:52:32.122Z,54.80
2024-01-30T00:55:01.133Z,52.10
2024-01-30T00:57:29.759Z,49.80
2024-01-30T00:59:58.663Z,49.40
2024-01-30T01:02:27.129Z,53.00
2024-01-30T01:04:55.685Z,47.90
2024-01-30T01:07:24.645Z,48.00
2024-01-30T01:09:53.112Z,49.30
2024-01-30T01:12:21.581Z,45.20
2024-01-30T01:14:50.314Z,45.40
2024-01-30T01:17:19.802Z,49.30
2024-01-30T01:19:48.389Z,50.40
2024-01-30T01:22:18.585Z,47.10
2024-01-30T01:24:47.115Z,53.80
2024-01-30T01:27:15.524Z,51.70
2024-01-30T01:29:44.344Z,48.60
2024-01-30T01:32:12.780Z,44.10
2024-01-30T01:34:41.284Z,45.90
2024-01-30T01:37:09.876Z,46.90
2024-01-30T01:39:38.563Z,52.10
2024-01-30T01:42:07.883Z,45.50
2024-01-30T01:44:36.259Z,48.10
2024-01-30T01:47:04.808Z,53.90
2024-01-30T01:49:33.749Z,49.70
2024-01-30T01:52:02.294Z,49.00
2024-01-30T01:54:31.233Z,45.90
2024-01-30T01:57:00.674Z,50.20
2024-01-30T01:59:29.306Z,46.10
2024-01-30T02:01:58.483Z,51.50
2024-01-30T02:04:27.513Z,53.10
2024-01-30T02:06:56.168Z,49.70
2024-01-30T02:09:24.534Z,46.80
2024-01-30T02:11:53.057Z,48.00
2024-01-30T02:14:22.364Z,51.20
2024-01-30T02:16:50.986Z,51.10
2024-01-30T02:19:19.487Z,50.90
2024-01-30T02:21:48.145Z,52.70
2024-01-30T02:24:16.526Z,56.30
2024-01-30T02:26:45.314Z,44.40
2024-01-30T02:29:13.532Z,51.90
2024-01-30T02:31:42.437Z,53.00
2024-01-30T02:34:11.314Z,48.70
2024-01-30T02:36:39.677Z,46.30
2024-01-30T02:39:08.137Z,46.20
2024-01-30T02:41:37.021Z,53.10
2024-01-30T02:44:05.464Z,46.80
2024-01-30T02:46:33.882Z,49.70
2024-01-30T02:49:03.219Z,48.50
2024-01-30T02:51:32.510Z,48.80
2024-01-30T02:54:00.980Z,48.20
2024-01-30T02:56:29.351Z,51.90
2024-01-30T02:58:57.858Z,47.40
2024-01-30T03:01:26.331Z,44.00
2024-01-30T03:03:54.789Z,50.00
2024-01-30T03:06:24.193Z,43.00
2024-01-30T03:08:52.579Z,52.30
2024-01-30T03:11:21.083Z,49.90
2024-01-30T03:13:49.345Z,47.70
2024-01-30T03:16:17.765Z,44.90
2024-01-30T03:18:46.234Z,47.10
2024-01-30T03:21:14.606Z,48.20
2024-01-30T03:23:42.996Z,47.10
2024-01-30T03:26:13.815Z,46.40
2024-01-30T03:28:42.372Z,45.90
2024-01-30T03:31:10.668Z,45.60
2024-01-30T03:33:39.422Z,49.30
2024-01-30T03:36:09.099Z,49.00
2024-01-30T03:38:37.443Z,45.30
2024-01-30T03:41:09.057Z,46.60
2024-01-30T03:43:37.875Z,53.50
2024-01-30T03:46:06.533Z,49.60
2024-01-30T03:48:34.964Z,48.10
2024-01-30T03:51:03.706Z,52.60
2024-01-30T03:53:32.479Z,48.40
2024-01-30T03:56:00.838Z,53.30
2024-01-30T03:58:29.404Z,53.40
2024-01-30T04:00:58.142Z,59.90
2024-01-30T04:03:26.749Z,52.20
2024-01-30T04:05:55.486Z,50.20
2024-01-30T04:08:23.956Z,59.30
2024-01-30T04:10:52.366Z,53.80
2024-01-30T04:13:20.808Z,52.90
2024-01-30T04:15:49.322Z,50.50
2024-01-30T04:18:17.964Z,52.20
2024-01-30T04:20:46.432Z,63.80
2024-01-30T04:23:15.132Z,51.70
2024-01-30T04:25:43.616Z,49.40
2024-01-30T04:28:13.371Z,50.00
2024-01-30T04:30:41.813Z,55.30
2024-01-30T04:33:11.836Z,48.70
2024-01-30T04:35:40.399Z,47.10
2024-01-30T04:38:08.805Z,48.80
2024-01-30T04:40:37.060Z,49.00
2024-01-30T04:43:05.650Z,51.70
2024-01-30T04:45:34.178Z,49.10
2024-01-30T04:48:02.515Z,52.50
2024-01-30T04:50:31.073Z,46.10
2024-01-30T04:52:59.630Z,43.60
2024-01-30T04:55:27.905Z,46.50
2024-01-30T04:57:56.278Z,48.20
2024-01-30T05:00:25.221Z,52.20
2024-01-30T05:02:53.578Z,51.40
2024-01-30T05:05:22.931Z,52.70
2024-01-30T05:07:51.665Z,64.30
2024-01-30T05:10:20.140Z,64.30
2024-01-30T05:12:48.501Z,50.00
2024-01-30T05:15:16.827Z,47.70
2024-01-30T05:17:45.288Z,50.40
2024-01-30T05:20:14.259Z,46.50
2024-01-30T05:22:46.640Z,49.10
2024-01-30T05:27:43.721Z,42.70
2024-01-30T05:30:12.671Z,47.90
2024-01-30T05:32:41.162Z,48.20
2024-01-30T05:35:10.046Z,48.50
2024-01-30T05:37:38.510Z,45.30
2024-01-30T05:40:07.440Z,47.20
2024-01-30T05:42:35.897Z,45.30
2024-01-30T05:45:06.630Z,49.00
2024-01-30T05:47:38.321Z,52.70
2024-01-30T05:50:07.756Z,46.20
2024-01-30T05:52:36.348Z,45.90
2024-01-30T05:55:06.007Z,48.60
2024-01-30T05:57:34.422Z,46.60
2024-01-30T06:00:03.352Z,49.10
2024-01-30T06:02:33.199Z,48.40
2024-01-30T06:05:01.789Z,51.20
2024-01-30T06:07:33.488Z,54.60
2024-01-30T06:10:05.365Z,52.10
2024-01-30T06:12:33.750Z,47.20
2024-01-30T06:15:03.101Z,130.60
2024-01-30T06:17:31.668Z,55.50
2024-01-30T06:20:00.647Z,44.80
2024-01-30T06:22:29.236Z,48.50
2024-01-30T06:24:57.711Z,51.10
2024-01-30T06:27:26.023Z,47.80
2024-01-30T06:29:54.278Z,54.70
2024-01-30T06:32:22.932Z,46.80
2024-01-30T06:34:51.264Z,47.30
2024-01-30T06:37:19.810Z,50.10
2024-01-30T06:39:48.174Z,43.20
2024-01-30T06:42:17.339Z,49.10
2024-01-30T06:44:45.680Z,47.70
2024-01-30T06:47:14.550Z,47.40
2024-01-30T06:49:44.964Z,47.00
2024-01-30T06:52:13.969Z,44.40
2024-01-30T06:54:42.598Z,45.30
2024-01-30T06:57:13.206Z,46.80
2024-01-30T06:59:44.722Z,48.10
2024-01-30T07:02:13.426Z,47.00
2024-01-30T07:04:46.522Z,49.20
2024-01-30T07:07:16.973Z,47.40
2024-01-30T07:09:45.889Z,46.60
2024-01-30T07:12:14.319Z,43.00
2024-01-30T07:14:42.862Z,44.30
2024-01-30T07:17:11.417Z,44.10
2024-01-30T07:19:39.720Z,49.30
2024-01-30T07:22:09.333Z,44.30
2024-01-30T07:24:37.642Z,40.40
2024-01-30T07:27:05.991Z,43.30
2024-01-30T07:29:34.702Z,43.10
2024-01-30T07:32:03.262Z,42.50
2024-01-30T07:34:32.443Z,40.60
2024-01-30T07:37:03.422Z,39.00
2024-01-30T07:39:32.016Z,50.80
2024-01-30T07:42:00.536Z,44.00
2024-01-30T07:44:29.190Z,41.60
2024-01-30T07:46:58.366Z,43.80
2024-01-30T07:49:26.722Z,40.00
2024-01-30T07:51:55.253Z,36.20
2024-01-30T07:54:24.622Z,43.70
2024-01-30T07:56:53.024Z,43.90
2024-01-30T07:59:23.484Z,36.50
2024-01-30T08:01:51.950Z,39.80
2024-01-30T08:04:20.452Z,38.50
2024-01-30T08:06:49.143Z,40.30
2024-01-30T08:09:17.526Z,43.70
2024-01-30T08:11:46.015Z,39.40
2024-01-30T08:14:15.129Z,36.60
2024-01-30T08:16:43.507Z,37.50
2024-01-30T08:19:12.047Z,34.70
2024-01-30T08:21:40.431Z,39.10
2024-01-30T08:24:09.071Z,34.80
2024-01-30T08:26:38.232Z,36.00
2024-01-30T08:29:06.999Z,36.70
2024-01-30T08:31:35.526Z,37.90
2024-01-30T08:34:03.962Z,35.80
2024-01-30T08:36:32.301Z,41.90
2024-01-30T08:39:02.923Z,36.30
2024-01-30T08:41:33.445Z,43.20
2024-01-30T08:44:01.931Z,36.80
2024-01-30T08:46:30.379Z,40.00
2024-01-30T08:48:58.805Z,41.30
2024-01-30T08:51:27.371Z,43.00
2024-01-30T08:53:55.632Z,42.50
2024-01-30T08:56:23.937Z,42.60
2024-01-30T08:58:52.498Z,45.50
2024-01-30T09:01:21.210Z,41.60
2024-01-30T09:03:49.588Z,46.10
2024-01-30T09:06:18.203Z,38.00
2024-01-30T09:08:46.598Z,42.20
2024-01-30T09:11:16.372Z,48.40
2024-01-30T09:13:44.970Z,47.60
2024-01-30T09:16:13.538Z,49.30
2024-01-30T09:18:42.055Z,46.20
2024-01-30T09:21:11.331Z,44.50
2024-01-30T09:23:39.532Z,50.70
2024-01-30T09:26:07.957Z,42.00
2024-01-30T09:28:36.744Z,44.70
2024-01-30T09:31:05.505Z,39.50
2024-01-30T09:33:34.468Z,44.90
2024-01-30T09:36:02.815Z,42.20
2024-01-30T09:38:31.043Z,37.80
2024-01-30T09:41:01.792Z,35.30
2024-01-30T09:43:35.850Z,39.50
2024-01-30T09:46:05.648Z,36.90
2024-01-30T09:48:35.354Z,34.00
2024-01-30T09:51:04.589Z,38.10
2024-01-30T09:53:33.292Z,36.20
2024-01-30T09:56:03.922Z,36.80
2024-01-30T09:58:32.236Z,35.10
2024-01-30T10:01:00.879Z,33.90
2024-01-30T10:03:29.282Z,42.50
2024-01-30T10:05:58.269Z,33.20
2024-01-30T10:08:27.859Z,35.60
2024-01-30T10:10:56.117Z,33.60
2024-01-30T10:13:24.416Z,33.20
2024-01-30T10:15:54.258Z,32.30
2024-01-30T10:18:24.441Z,35.10
2024-01-30T10:20:53.270Z,29.20
2024-01-30T10:23:21.600Z,31.60
2024-01-30T10:25:50.002Z,33.00
2024-01-30T10:28:18.424Z,32.40
2024-01-30T10:30:47.081Z,32.20
2024-01-30T10:33:15.494Z,36.90
2024-01-30T10:35:44.474Z,31.60
2024-01-30T10:38:16.621Z,31.80
2024-01-30T10:40:46.476Z,35.40
2024-01-30T10:43:18.272Z,29.70
2024-01-30T10:45:50.808Z,30.00
2024-01-30T10:48:23.869Z,29.40
2024-01-30T10:51:00.986Z,27.40
2024-01-30T10:53:32.558Z,30.80
2024-01-30T10:56:02.525Z,30.90
2024-01-30T10:58:31.053Z,28.60
2024-01-30T11:01:00.396Z,33.50
2024-01-30T11:03:29.260Z,28.00
2024-01-30T11:06:01.236Z,28.10
2024-01-30T11:08:30.038Z,34.40
2024-01-30T11:10:59.899Z,32.50
2024-01-30T11:13:30.853Z,39.10
2024-01-30T11:16:04.042Z,28.50
2024-01-30T11:18:34.387Z,34.70
2024-01-30T11:21:05.583Z,31.00
2024-01-30T11:23:35.855Z,29.30
2024-01-30T11:26:05.326Z,31.00
2024-01-30T11:28:37.762Z,32.50
2024-01-30T11:31:08.360Z,34.20
2024-01-30T11:33:37.019Z,30.50
2024-01-30T11:36:08.199Z,35.70
2024-01-30T11:38:37.053Z,37.80
2024-01-30T11:41:06.090Z,32.90
2024-01-30T11:43:36.334Z,32.20
2024-01-30T11:46:10.569Z,34.90
2024-01-30T11:48:38.968Z,34.10
2024-01-30T11:51:07.582Z,30.70
2024-01-30T11:53:36.031Z,29.00
2024-01-30T11:56:07.571Z,31.30
2024-01-30T11:58:35.963Z,28.40
2024-01-30T12:01:04.715Z,33.00
2024-01-30T12:03:33.583Z,42.40
2024-01-30T12:06:04.534Z,41.80
2024-01-30T12:08:32.853Z,45.80
2024-01-30T12:11:06.628Z,45.10
2024-01-30T12:13:35.934Z,44.20
2024-01-30T12:16:05.020Z,46.00
2024-01-30T12:18:33.266Z,43.10
2024-01-30T12:21:04.290Z,43.30
2024-01-30T12:23:33.770Z,41.50
2024-01-30T12:26:04.655Z,51.60
2024-01-30T12:28:32.984Z,38.80
2024-01-30T12:31:05.647Z,45.90
2024-01-30T12:33:34.315Z,38.10
2024-01-30T12:36:04.428Z,42.80
2024-01-30T12:38:33.227Z,40.30
2024-01-30T12:41:01.844Z,45.00
2024-01-30T12:43:37.679Z,48.40
2024-01-30T12:46:07.833Z,48.30
2024-01-30T12:51:21.930Z,44.70
2024-01-30T12:53:50.274Z,50.50
2024-01-30T12:56:18.604Z,44.80
2024-01-30T12:58:50.994Z,49.10
2024-01-30T13:01:20.433Z,49.70
2024-01-30T13:03:49.321Z,43.10
2024-01-30T13:06:17.701Z,47.50
2024-01-30T13:08:46.280Z,47.30
2024-01-30T13:11:20.940Z,50.30
2024-01-30T13:13:50.636Z,45.80
2024-01-30T13:16:19.213Z,48.00
2024-01-30T13:18:47.709Z,46.90
2024-01-30T13:21:16.096Z,47.70
2024-01-30T13:23:44.658Z,42.20
2024-01-30T13:26:13.260Z,41.00
2024-01-30T13:28:41.534Z,47.20
2024-01-30T13:31:09.922Z,49.40
2024-01-30T13:33:38.308Z,44.10
2024-01-30T13:36:07.962Z,50.00
2024-01-30T13:38:36.441Z,49.40
2024-01-30T13:41:05.353Z,48.10
2024-01-30T13:43:33.700Z,45.10
2024-01-30T13:46:02.625Z,39.90
2024-01-30T13:48:32.304Z,45.00
2024-01-30T13:51:00.780Z,44.80
2024-01-30T13:53:30.288Z,43.20
2024-01-30T13:55:58.639Z,47.00
2024-01-30T13:58:27.113Z,41.40
2024-01-30T14:00:56.367Z,50.80
2024-01-30T14:03:24.912Z,53.50
2024-01-30T14:05:53.497Z,48.40
2024-01-30T14:08:25.195Z,43.40
2024-01-30T14:10:53.649Z,46.60
2024-01-30T14:13:22.413Z,47.30
2024-01-30T14:15:50.989Z,47.10
2024-01-30T14:18:21.698Z,45.70
2024-01-30T14:20:50.572Z,47.60
2024-01-30T14:23:19.515Z,39.20
2024-01-30T14:25:47.938Z,44.00
2024-01-30T14:28:16.709Z,46.10
2024-01-30T14:30:45.289Z,51.90
2024-01-30T14:33:13.930Z,44.90
2024-01-30T14:35:42.670Z,46.70
2024-01-30T14:38:10.985Z,57.50
2024-01-30T14:40:40.640Z,52.20
2024-01-30T14:43:10.477Z,53.10
2024-01-30T14:45:40.108Z,50.80
2024-01-30T14:48:08.819Z,58.20
2024-01-30T14:50:37.345Z,56.80
2024-01-30T14:53:05.804Z,53.10
2024-01-30T14:55:34.119Z,54.30
2024-01-30T14:58:03.752Z,56.00
2024-01-30T15:00:32.275Z,66.70
2024-01-30T15:03:00.526Z,61.00
2024-01-30T15:05:29.604Z,49.20
2024-01-30T15:07:58.162Z,50.10
2024-01-30T15:10:26.859Z,50.60
2024-01-30T15:12:55.345Z,45.40
2024-01-30T15:15:25.154Z,53.10
2024-01-30T15:17:55.370Z,48.70
2024-01-30T15:20:23.928Z,47.50
2024-01-30T15:22:52.327Z,45.60
2024-01-30T15:25:20.741Z,43.60
2024-01-30T15:27:49.446Z,44.70
2024-01-30T15:30:17.980Z,45.30
2024-01-30T15:32:46.315Z,46.70
2024-01-30T15:35:14.851Z,42.80
2024-01-30T15:37:43.329Z,37.80
2024-01-30T15:40:12.813Z,42.50
2024-01-30T15:42:41.081Z,41.80
2024-01-30T15:45:09.775Z,38.60
2024-01-30T15:47:38.260Z,45.50
2024-01-30T15:50:07.445Z,46.80
2024-01-30T15:52:36.269Z,52.70
2024-01-30T15:55:05.146Z,51.50
2024-01-30T15:57:33.575Z,49.30
2024-01-30T16:00:02.293Z,43.30
2024-01-30T16:02:40.377Z,49.70
2024-01-30T16:05:12.402Z,47.80
2024-01-30T16:07:40.867Z,47.80
2024-01-30T16:10:09.871Z,50.50
2024-01-30T16:12:38.316Z,42.10
2024-01-30T16:15:07.007Z,46.40
2024-01-30T16:17:37.245Z,47.40
2024-01-30T16:20:07.334Z,45.20
2024-01-30T16:22:36.609Z,45.40
2024-01-30T16:25:05.745Z,44.60
2024-01-30T16:27:39.266Z,42.50
2024-01-30T16:30:10.553Z,40.70
2024-01-30T16:32:39.010Z,43.50
2024-01-30T16:35:07.680Z,40.00
2024-01-30T16:37:36.085Z,42.60
2024-01-30T16:40:05.649Z,44.00
2024-01-30T16:42:34.136Z,37.30
2024-01-30T16:45:02.499Z,40.60
2024-01-30T16:47:31.183Z,48.00
2024-01-30T16:49:59.953Z,47.40
2024-01-30T16:52:28.590Z,43.10
2024-01-30T16:54:57.051Z,41.60
2024-01-30T16:57:25.329Z,43.50
2024-01-30T16:59:53.805Z,46.30
2024-01-30T17:02:22.162Z,43.60
2024-01-30T17:04:50.621Z,45.20
2024-01-30T17:07:19.636Z,46.20
2024-01-30T17:09:48.837Z,46.80
2024-01-30T17:12:17.733Z,46.40
2024-01-30T17:14:48.046Z,43.90
2024-01-30T17:17:16.660Z,54.40
2024-01-30T17:19:45.145Z,47.80
2024-01-30T17:22:13.845Z,49.40
2024-01-30T17:24:49.694Z,48.60
2024-01-30T17:27:19.404Z,45.10
2024-01-30T17:29:48.561Z,50.10
2024-01-30T17:32:17.019Z,48.30
2024-01-30T17:34:45.480Z,51.10
2024-01-30T17:37:14.101Z,49.50
2024-01-30T17:39:42.999Z,50.90
2024-01-30T17:42:11.484Z,52.40
2024-01-30T17:44:41.804Z,50.50
2024-01-30T17:47:10.875Z,49.00
2024-01-30T17:49:40.165Z,50.50
2024-01-30T17:52:09.772Z,49.00
2024-01-30T17:54:38.356Z,54.30
2024-01-30T17:57:07.096Z,59.50
2024-01-30T17:59:37.265Z,58.20
2024-01-30T18:02:05.925Z,52.10
2024-01-30T18:04:34.638Z,56.60
2024-01-30T18:07:03.399Z,52.10
2024-01-30T18:09:32.052Z,55.60
2024-01-30T18:12:01.061Z,50.90
2024-01-30T18:14:29.398Z,48.10
2024-01-30T18:16:57.784Z,40.20
2024-01-30T18:19:28.460Z,43.30
2024-01-30T18:21:57.015Z,46.50
2024-01-30T18:24:26.987Z,51.70
2024-01-30T18:26:56.256Z,45.00
2024-01-30T18:29:25.005Z,43.40
2024-01-30T18:31:53.384Z,45.80
2024-01-30T18:34:21.828Z,41.00
2024-01-30T18:36:50.486Z,41.40
2024-01-30T18:39:18.922Z,40.40
2024-01-30T18:41:47.404Z,41.50
2024-01-30T18:44:15.917Z,47.80
2024-01-30T18:46:44.596Z,51.50
2024-01-30T18:49:18.689Z,45.50
2024-01-30T18:51:50.632Z,45.80
2024-01-30T18:54:21.167Z,48.60
2024-01-30T18:56:50.852Z,46.20
2024-01-30T18:59:19.452Z,44.80
2024-01-30T19:01:49.192Z,42.60
2024-01-30T19:04:17.720Z,40.90
2024-01-30T19:06:53.323Z,46.10
2024-01-30T19:09:26.962Z,44.20
2024-01-30T19:11:55.528Z,39.70
2024-01-30T19:14:24.112Z,38.70
2024-01-30T19:16:53.048Z,44.10
2024-01-30T19:19:21.970Z,38.50
2024-01-30T19:21:50.466Z,39.40
2024-01-30T19:24:18.888Z,39.00
2024-01-30T19:26:49.494Z,39.00
2024-01-30T19:29:17.895Z,40.90
2024-01-30T19:31:47.083Z,37.30
2024-01-30T19:34:15.924Z,37.90
2024-01-30T19:36:44.275Z,39.10
2024-01-30T19:39:14.559Z,36.50
2024-01-30T19:41:45.160Z,35.80
2024-01-30T19:44:13.675Z,42.40
2024-01-30T19:46:42.046Z,39.00
2024-01-30T19:49:11.325Z,36.00
2024-01-30T19:51:39.967Z,44.00
2024-01-30T19:54:12.116Z,39.00
2024-01-30T19:56:41.048Z,39.10
2024-01-30T19:59:09.845Z,38.10
2024-01-30T20:01:38.246Z,37.30
2024-01-30T20:04:07.723Z,38.10
2024-01-30T20:06:36.166Z,41.50
2024-01-30T20:09:04.624Z,36.80
2024-01-30T20:11:33.120Z,37.80
2024-01-30T20:14:01.583Z,38.50
2024-01-30T20:16:38.530Z,35.20
2024-01-30T20:19:11.191Z,33.60
2024-01-30T20:21:40.237Z,33.30
2024-01-30T20:24:10.009Z,34.60
2024-01-30T20:26:39.625Z,36.40
2024-01-30T20:29:08.419Z,32.80
2024-01-30T20:31:37.549Z,32.80
2024-01-30T20:34:06.150Z,33.50
2024-01-30T20:36:34.690Z,33.90
2024-01-30T20:39:04.572Z,32.10
2024-01-30T20:41:40.206Z,33.20
2024-01-30T20:44:09.031Z,31.30
2024-01-30T20:46:37.956Z,33.60
2024-01-30T20:49:06.553Z,31.20
2024-01-30T20:51:35.091Z,31.70
2024-01-30T20:54:03.957Z,33.90
2024-01-30T20:56:32.288Z,35.00
2024-01-30T20:59:01.123Z,31.60
2024-01-30T21:01:29.625Z,34.00
2024-01-30T21:03:58.113Z,29.10
2024-01-30T21:06:26.935Z,32.20
2024-01-30T21:08:55.311Z,30.00
2024-01-30T21:11:23.573Z,37.10
2024-01-30T21:13:52.446Z,31.00
2024-01-30T21:16:21.012Z,52.70
2024-01-30T21:18:49.584Z,50.30
2024-01-30T21:21:18.803Z,30.70
2024-01-30T21:23:47.336Z,32.40
2024-01-30T21:26:16.382Z,33.80
2024-01-30T21:28:44.960Z,31.40
2024-01-30T21:31:15.411Z,35.10
2024-01-30T21:33:44.630Z,29.50
2024-01-30T21:36:13.135Z,34.80
2024-01-30T21:38:41.534Z,28.50
2024-01-30T21:41:10.572Z,30.00
2024-01-30T21:43:39.134Z,29.60
2024-01-30T21:46:08.373Z,29.60
2024-01-30T21:48:37.155Z,46.00
2024-01-30T21:51:06.035Z,35.60
2024-01-30T21:53:34.259Z,32.70
2024-01-30T21:56:02.874Z,30.10
2024-01-30T21:58:32.331Z,33.10
2024-01-30T22:01:01.016Z,31.10
2024-01-30T22:03:29.772Z,33.60
2024-01-30T22:05:58.293Z,30.70
2024-01-30T22:08:27.017Z,32.10
2024-01-30T22:10:55.590Z,34.60
2024-01-30T22:13:25.696Z,30.80
2024-01-30T22:15:54.310Z,31.90
2024-01-30T22:18:22.693Z,33.70
2024-01-30T22:20:51.200Z,31.50
2024-01-30T22:23:19.716Z,30.80
2024-01-30T22:25:48.403Z,32.60
2024-01-30T22:28:16.760Z,31.40
2024-01-30T22:30:45.101Z,80.30
2024-01-30T22:33:13.654Z,36.40
2024-01-30T22:35:42.158Z,32.20
2024-01-30T22:38:11.226Z,27.90
2024-01-30T22:40:40.000Z,33.20
2024-01-30T22:43:08.888Z,32.00
2024-01-30T22:45:37.352Z,30.10
2024-01-30T22:48:06.374Z,34.60
2024-01-30T22:50:34.765Z,29.80
2024-01-30T22:53:03.115Z,27.20
2024-01-30T22:55:31.710Z,28.50
2024-01-30T22:58:00.472Z,32.40
2024-01-30T23:00:30.008Z,32.30
2024-01-30T23:02:58.760Z,31.30
2024-01-30T23:05:27.652Z,32.10
2024-01-30T23:07:55.956Z,30.00
2024-01-30T23:10:24.202Z,28.90
2024-01-30T23:12:53.364Z,33.70
2024-01-30T23:15:21.829Z,54.30
2024-01-30T23:17:50.376Z,29.80
2024-01-30T23:20:18.839Z,31.00
2024-01-30T23:22:48.250Z,30.50
2024-01-30T23:25:16.854Z,28.60
2024-01-30T23:27:45.194Z,31.00
2024-01-30T23:30:14.276Z,28.00
2024-01-30T23:32:43.852Z,27.50
2024-01-30T23:35:12.734Z,29.20
2024-01-30T23:37:41.246Z,30.10
2024-01-30T23:40:13.187Z,37.60
2024-01-30T23:42:41.647Z,30.60
2024-01-30T23:45:11.742Z,33.20
2024-01-30T23:47:40.451Z,32.80
2024-01-30T23:50:09.527Z,34.70
2024-01-30T23:52:47.092Z,32.50
2024-01-30T23:55:15.862Z,38.10
2024-01-30T23:57:44.384Z,34.80
